<?xml version="1.0" encoding="UTF-8" standalone="no" ?>
<gpx xmlns="http://www.topografix.com/GPX/1/1" xmlns:xsi="http://www.w3.org/2001/XMLSchema-instance" xsi:schemaLocation="http://www.topografix.com/GPX/1/1 http://www.topografix.com/GPX/1/1/gpx.xsd" version="1.1" creator="VisuGPX - https://www.visugpx.com">
  <metadata>
    <name>Randonnée du 23/01/2022 à 22:18</name>
  </metadata>
  <trk>
    <name><![CDATA[Randonnée du 23/01/2022 à 22:18]]></name>
    <trkseg>
      <trkpt lat="49.23508" lon="-0.44394">
        <ele>34</ele>
        <time>2022-01-23T22:19:44+01:00</time>
      </trkpt>
      <trkpt lat="49.23536" lon="-0.44423">
        <ele>35</ele>
        <time>2022-01-23T22:20:33+01:00</time>
      </trkpt>
      <trkpt lat="49.23568" lon="-0.44437">
        <ele>34</ele>
        <time>2022-01-23T22:21:11+01:00</time>
      </trkpt>
      <trkpt lat="49.23649" lon="-0.44429">
        <ele>32</ele>
        <time>2022-01-23T22:22:44+01:00</time>
      </trkpt>
      <trkpt lat="49.23806" lon="-0.44264">
        <ele>32</ele>
        <time>2022-01-23T22:26:21+01:00</time>
      </trkpt>
      <trkpt lat="49.24002" lon="-0.44307">
        <ele>29</ele>
        <time>2022-01-23T22:30:08+01:00</time>
      </trkpt>
      <trkpt lat="49.24047" lon="-0.44304">
        <ele>30</ele>
        <time>2022-01-23T22:31:10+01:00</time>
      </trkpt>
      <trkpt lat="49.24209" lon="-0.44238">
        <ele>31</ele>
        <time>2022-01-23T22:34:32+01:00</time>
      </trkpt>
      <trkpt lat="49.24246" lon="-0.44227">
        <ele>32</ele>
        <time>2022-01-23T22:35:26+01:00</time>
      </trkpt>
      <trkpt lat="49.2423" lon="-0.44317">
        <ele>32</ele>
        <time>2022-01-23T22:36:36+01:00</time>
      </trkpt>
      <trkpt lat="49.24213" lon="-0.44373">
        <ele>33</ele>
        <time>2022-01-23T22:37:33+01:00</time>
      </trkpt>
      <trkpt lat="49.24196" lon="-0.44427">
        <ele>35</ele>
        <time>2022-01-23T22:38:38+01:00</time>
      </trkpt>
      <trkpt lat="49.24186" lon="-0.44475">
        <ele>35</ele>
        <time>2022-01-23T22:39:16+01:00</time>
      </trkpt>
      <trkpt lat="49.24176" lon="-0.44561">
        <ele>37</ele>
        <time>2022-01-23T22:40:43+01:00</time>
      </trkpt>
      <trkpt lat="49.24229" lon="-0.44597">
        <ele>36</ele>
        <time>2022-01-23T22:41:49+01:00</time>
      </trkpt>
      <trkpt lat="49.24312" lon="-0.44661">
        <ele>34</ele>
        <time>2022-01-23T22:43:36+01:00</time>
      </trkpt>
      <trkpt lat="49.24222" lon="-0.44787">
        <ele>33</ele>
        <time>2022-01-23T22:45:56+01:00</time>
      </trkpt>
      <trkpt lat="49.24195" lon="-0.44826">
        <ele>33</ele>
        <time>2022-01-23T22:46:39+01:00</time>
      </trkpt>
      <trkpt lat="49.24182" lon="-0.44862">
        <ele>33</ele>
        <time>2022-01-23T22:47:10+01:00</time>
      </trkpt>
      <trkpt lat="49.24191" lon="-0.44878">
        <ele>33</ele>
        <time>2022-01-23T22:47:26+01:00</time>
      </trkpt>
      <trkpt lat="49.24194" lon="-0.44897">
        <ele>33</ele>
        <time>2022-01-23T22:47:40+01:00</time>
      </trkpt>
      <trkpt lat="49.24202" lon="-0.44921">
        <ele>33</ele>
        <time>2022-01-23T22:48:00+01:00</time>
      </trkpt>
      <trkpt lat="49.24242" lon="-0.4499">
        <ele>32</ele>
        <time>2022-01-23T22:49:09+01:00</time>
      </trkpt>
      <trkpt lat="49.24245" lon="-0.44998">
        <ele>32</ele>
        <time>2022-01-23T22:49:17+01:00</time>
      </trkpt>
      <trkpt lat="49.24222" lon="-0.45047">
        <ele>33</ele>
        <time>2022-01-23T22:50:12+01:00</time>
      </trkpt>
      <trkpt lat="49.24212" lon="-0.45062">
        <ele>34</ele>
        <time>2022-01-23T22:50:38+01:00</time>
      </trkpt>
      <trkpt lat="49.24173" lon="-0.45095">
        <ele>34</ele>
        <time>2022-01-23T22:51:30+01:00</time>
      </trkpt>
      <trkpt lat="49.24169" lon="-0.45125">
        <ele>35</ele>
        <time>2022-01-23T22:52:03+01:00</time>
      </trkpt>
      <trkpt lat="49.24113" lon="-0.45191">
        <ele>35</ele>
        <time>2022-01-23T22:53:24+01:00</time>
      </trkpt>
      <trkpt lat="49.2408" lon="-0.45258">
        <ele>35</ele>
        <time>2022-01-23T22:54:28+01:00</time>
      </trkpt>
      <trkpt lat="49.24061" lon="-0.45302">
        <ele>36</ele>
        <time>2022-01-23T22:55:18+01:00</time>
      </trkpt>
      <trkpt lat="49.23991" lon="-0.45428">
        <ele>37</ele>
        <time>2022-01-23T22:57:32+01:00</time>
      </trkpt>
      <trkpt lat="49.23971" lon="-0.45479">
        <ele>37</ele>
        <time>2022-01-23T22:58:16+01:00</time>
      </trkpt>
      <trkpt lat="49.23952" lon="-0.45543">
        <ele>36</ele>
        <time>2022-01-23T22:59:09+01:00</time>
      </trkpt>
      <trkpt lat="49.23932" lon="-0.45623">
        <ele>36</ele>
        <time>2022-01-23T23:00:13+01:00</time>
      </trkpt>
      <trkpt lat="49.23912" lon="-0.45694">
        <ele>37</ele>
        <time>2022-01-23T23:01:20+01:00</time>
      </trkpt>
      <trkpt lat="49.23895" lon="-0.45733">
        <ele>37</ele>
        <time>2022-01-23T23:01:55+01:00</time>
      </trkpt>
      <trkpt lat="49.23874" lon="-0.45771">
        <ele>37</ele>
        <time>2022-01-23T23:02:32+01:00</time>
      </trkpt>
      <trkpt lat="49.23869" lon="-0.45792">
        <ele>37</ele>
        <time>2022-01-23T23:02:49+01:00</time>
      </trkpt>
      <trkpt lat="49.23863" lon="-0.45965">
        <ele>41</ele>
        <time>2022-01-23T23:05:39+01:00</time>
      </trkpt>
      <trkpt lat="49.23819" lon="-0.4604">
        <ele>40</ele>
        <time>2022-01-23T23:06:55+01:00</time>
      </trkpt>
      <trkpt lat="49.23786" lon="-0.46087">
        <ele>40</ele>
        <time>2022-01-23T23:07:47+01:00</time>
      </trkpt>
      <trkpt lat="49.23557" lon="-0.46434">
        <ele>43</ele>
        <time>2022-01-23T23:14:27+01:00</time>
      </trkpt>
      <trkpt lat="49.23519" lon="-0.4649">
        <ele>42</ele>
        <time>2022-01-23T23:15:27+01:00</time>
      </trkpt>
      <trkpt lat="49.23421" lon="-0.46564">
        <ele>44</ele>
        <time>2022-01-23T23:17:53+01:00</time>
      </trkpt>
      <trkpt lat="49.23409" lon="-0.46536">
        <ele>44</ele>
        <time>2022-01-23T23:18:18+01:00</time>
      </trkpt>
      <trkpt lat="49.23397" lon="-0.46468">
        <ele>44</ele>
        <time>2022-01-23T23:19:10+01:00</time>
      </trkpt>
      <trkpt lat="49.23381" lon="-0.46355">
        <ele>44</ele>
        <time>2022-01-23T23:20:37+01:00</time>
      </trkpt>
      <trkpt lat="49.23372" lon="-0.46318">
        <ele>44</ele>
        <time>2022-01-23T23:21:07+01:00</time>
      </trkpt>
      <trkpt lat="49.23342" lon="-0.46246">
        <ele>42</ele>
        <time>2022-01-23T23:22:11+01:00</time>
      </trkpt>
      <trkpt lat="49.23333" lon="-0.46238">
        <ele>42</ele>
        <time>2022-01-23T23:22:23+01:00</time>
      </trkpt>
      <trkpt lat="49.23286" lon="-0.46263">
        <ele>43</ele>
        <time>2022-01-23T23:23:30+01:00</time>
      </trkpt>
      <trkpt lat="49.23274" lon="-0.46257">
        <ele>43</ele>
        <time>2022-01-23T23:23:45+01:00</time>
      </trkpt>
      <trkpt lat="49.23252" lon="-0.46225">
        <ele>43</ele>
        <time>2022-01-23T23:24:20+01:00</time>
      </trkpt>
      <trkpt lat="49.23237" lon="-0.46222">
        <ele>43</ele>
        <time>2022-01-23T23:24:37+01:00</time>
      </trkpt>
      <trkpt lat="49.23071" lon="-0.46325">
        <ele>40</ele>
        <time>2022-01-23T23:28:02+01:00</time>
      </trkpt>
      <trkpt lat="49.23014" lon="-0.46184">
        <ele>39</ele>
        <time>2022-01-23T23:30:06+01:00</time>
      </trkpt>
      <trkpt lat="49.22968" lon="-0.46156">
        <ele>40</ele>
        <time>2022-01-23T23:31:13+01:00</time>
      </trkpt>
      <trkpt lat="49.22941" lon="-0.46101">
        <ele>41</ele>
        <time>2022-01-23T23:32:14+01:00</time>
      </trkpt>
      <trkpt lat="49.23001" lon="-0.46044">
        <ele>39</ele>
        <time>2022-01-23T23:33:35+01:00</time>
      </trkpt>
      <trkpt lat="49.23033" lon="-0.45987">
        <ele>40</ele>
        <time>2022-01-23T23:34:42+01:00</time>
      </trkpt>
      <trkpt lat="49.23114" lon="-0.45893">
        <ele>40</ele>
        <time>2022-01-23T23:36:38+01:00</time>
      </trkpt>
      <trkpt lat="49.2319" lon="-0.45811">
        <ele>41</ele>
        <time>2022-01-23T23:38:35+01:00</time>
      </trkpt>
      <trkpt lat="49.23237" lon="-0.45765">
        <ele>42</ele>
        <time>2022-01-23T23:39:49+01:00</time>
      </trkpt>
      <trkpt lat="49.23074" lon="-0.45482">
        <ele>44</ele>
        <time>2022-01-23T23:44:52+01:00</time>
      </trkpt>
      <trkpt lat="49.2319" lon="-0.45394">
        <ele>41</ele>
        <time>2022-01-23T23:47:20+01:00</time>
      </trkpt>
      <trkpt lat="49.23307" lon="-0.45333">
        <ele>41</ele>
        <time>2022-01-23T23:49:43+01:00</time>
      </trkpt>
      <trkpt lat="49.23261" lon="-0.4516">
        <ele>40</ele>
        <time>2022-01-23T23:52:03+01:00</time>
      </trkpt>
      <trkpt lat="49.23258" lon="-0.45084">
        <ele>40</ele>
        <time>2022-01-23T23:53:00+01:00</time>
      </trkpt>
      <trkpt lat="49.23248" lon="-0.44842">
        <ele>37</ele>
        <time>2022-01-23T23:56:01+01:00</time>
      </trkpt>
      <trkpt lat="49.23244" lon="-0.4475">
        <ele>38</ele>
        <time>2022-01-23T23:57:20+01:00</time>
      </trkpt>
      <trkpt lat="49.2323" lon="-0.44602">
        <ele>37</ele>
        <time>2022-01-23T23:59:12+01:00</time>
      </trkpt>
      <trkpt lat="49.23221" lon="-0.44548">
        <ele>37</ele>
        <time>2022-01-23T23:59:54+01:00</time>
      </trkpt>
      <trkpt lat="49.23225" lon="-0.44506">
        <ele>36</ele>
        <time>2022-01-24T00:00:26+01:00</time>
      </trkpt>
      <trkpt lat="49.23168" lon="-0.44432">
        <ele>34</ele>
        <time>2022-01-24T00:01:51+01:00</time>
      </trkpt>
      <trkpt lat="49.23177" lon="-0.44414">
        <ele>34</ele>
        <time>2022-01-24T00:02:08+01:00</time>
      </trkpt>
      <trkpt lat="49.23159" lon="-0.44333">
        <ele>34</ele>
        <time>2022-01-24T00:03:12+01:00</time>
      </trkpt>
      <trkpt lat="49.23144" lon="-0.44285">
        <ele>35</ele>
        <time>2022-01-24T00:04:02+01:00</time>
      </trkpt>
      <trkpt lat="49.2313" lon="-0.44253">
        <ele>35</ele>
        <time>2022-01-24T00:04:31+01:00</time>
      </trkpt>
      <trkpt lat="49.23119" lon="-0.4419">
        <ele>36</ele>
        <time>2022-01-24T00:05:30+01:00</time>
      </trkpt>
      <trkpt lat="49.23098" lon="-0.44095">
        <ele>38</ele>
        <time>2022-01-24T00:07:05+01:00</time>
      </trkpt>
      <trkpt lat="49.23109" lon="-0.44066">
        <ele>38</ele>
        <time>2022-01-24T00:07:30+01:00</time>
      </trkpt>
      <trkpt lat="49.23184" lon="-0.43939">
        <ele>39</ele>
        <time>2022-01-24T00:09:49+01:00</time>
      </trkpt>
      <trkpt lat="49.23218" lon="-0.43947">
        <ele>38</ele>
        <time>2022-01-24T00:10:29+01:00</time>
      </trkpt>
      <trkpt lat="49.23361" lon="-0.44">
        <ele>36</ele>
        <time>2022-01-24T00:13:16+01:00</time>
      </trkpt>
      <trkpt lat="49.23481" lon="-0.44039">
        <ele>35</ele>
        <time>2022-01-24T00:15:37+01:00</time>
      </trkpt>
      <trkpt lat="49.23515" lon="-0.4405">
        <ele>35</ele>
        <time>2022-01-24T00:16:17+01:00</time>
      </trkpt>
      <trkpt lat="49.23551" lon="-0.44065">
        <ele>36</ele>
        <time>2022-01-24T00:17:09+01:00</time>
      </trkpt>
      <trkpt lat="49.23616" lon="-0.4412">
        <ele>36</ele>
        <time>2022-01-24T00:18:34+01:00</time>
      </trkpt>
      <trkpt lat="49.2375" lon="-0.44226">
        <ele>33</ele>
        <time>2022-01-24T00:21:27+01:00</time>
      </trkpt>
      <trkpt lat="49.23806" lon="-0.44272">
        <ele>32</ele>
        <time>2022-01-24T00:22:39+01:00</time>
      </trkpt>
      <trkpt lat="49.23654" lon="-0.44418">
        <ele>31</ele>
        <time>2022-01-24T00:26:04+01:00</time>
      </trkpt>
      <trkpt lat="49.23609" lon="-0.44437">
        <ele>33</ele>
        <time>2022-01-24T00:27:18+01:00</time>
      </trkpt>
      <trkpt lat="49.23565" lon="-0.44428">
        <ele>34</ele>
        <time>2022-01-24T00:28:19+01:00</time>
      </trkpt>
      <trkpt lat="49.23527" lon="-0.44422">
        <ele>35</ele>
        <time>2022-01-24T00:29:13+01:00</time>
      </trkpt>
      <trkpt lat="49.23508" lon="-0.44398">
        <ele>34</ele>
        <time>2022-01-24T00:29:41+01:00</time>
      </trkpt>
    </trkseg>
  </trk>
</gpx>